2007 SEPAT (2007223N19136)


On this page: IBTrACS data - Map and Plots - Positions - Intensities - Original source data

Summary

Start Aug 11
End Aug 24
Basin WP
LMI 140 kt
Sources jtwc_wp
tokyo
cma
hko
In WMO? Yes
Previous storm 2007 FLOSSIE (EP)
Previous in basin 2007 WUTIP (WP)
Concurrent storms 2007 PABUK (WP)
2007 FLOSSIE (EP)
2007 SEPAT (WP)
2007 DEAN (NA)
2007 ERIN (NA)
Next in basin 2007 FITOW (WP)
Next storm 2007 DEAN (NA)

top of page IBTrACS Data: File Access

top of page HURSAT Data: File Access

Image of storm

top of page Plots:

Map of storm track will not appear if FTP is down
Time series of cyclone Maximum Sustained Wind will not appear if FTP is down
Time series of cyclone Minimum Central Pressure will not appear if FTP is down

top of page Track Data:Position

jtwc_wp tokyo cma hko
Date Lat Lon Lat Lon Lat Lon Lat Lon
2007-08-11 00:00:00 18.6 136.1
2007-08-11 06:00:00 18.3 135.8
2007-08-11 12:00:00 18.0 135.6
2007-08-11 18:00:00 17.8 135.5
2007-08-12 00:00:00 17.6 135.5 17.6 135.8 17.6 135.8
2007-08-12 06:00:00 17.4 135.4 17.3 135.6 17.3 135.6 17.3 135.7
2007-08-12 12:00:00 17.0 135.2 17.2 135.5 17.2 135.5 17.1 135.5
2007-08-12 18:00:00 16.7 134.8 17.1 135.1 17.1 135.1 17.0 135.2
2007-08-13 00:00:00 16.6 134.3 16.9 134.4 16.9 134.5 16.8 134.6
2007-08-13 06:00:00 16.5 133.7 16.6 133.8 16.6 133.8 16.7 133.9
2007-08-13 12:00:00 16.4 133.0 16.5 133.1 16.5 133.1 16.6 133.2
2007-08-13 18:00:00 16.3 132.3 16.5 132.4 16.5 132.4 16.5 132.4
2007-08-14 00:00:00 16.2 131.5 16.4 131.6 16.4 131.6 16.4 131.6
2007-08-14 06:00:00 16.0 130.7 16.2 130.7 16.2 130.7 16.2 130.8
2007-08-14 12:00:00 15.8 129.9 15.8 130.0 15.8 130.0 15.9 129.9
2007-08-14 18:00:00 15.5 129.2 15.7 129.2 15.7 129.3 15.7 129.2
2007-08-15 00:00:00 15.6 128.5 15.6 128.7 15.6 128.7 15.6 128.6
2007-08-15 06:00:00 15.9 128.0 15.7 128.1 15.7 128.1 15.7 128.1
2007-08-15 12:00:00 16.1 127.6 16.0 127.8 16.0 127.7 16.0 127.8
2007-08-15 18:00:00 16.6 127.1 16.7 127.2 16.7 127.2 16.6 127.2
2007-08-16 00:00:00 17.2 126.6 17.3 126.5 17.2 126.6 17.2 126.6
2007-08-16 06:00:00 17.9 126.1 17.9 126.1 17.9 126.1 17.9 126.1
2007-08-16 12:00:00 18.7 125.6 18.7 125.6 18.7 125.6 18.7 125.5
2007-08-16 18:00:00 19.4 124.8 19.4 124.8 19.4 124.8 19.4 124.8
2007-08-17 00:00:00 20.2 124.2 20.4 124.2 20.4 124.1 20.4 124.1
jtwc_wp tokyo cma hko
2007-08-17 06:00:00 21.0 123.5 21.0 123.3 21.0 123.4 21.0 123.3
2007-08-17 12:00:00 21.9 122.8 21.8 122.9 21.8 122.9 21.8 122.9
2007-08-17 18:00:00 22.7 122.0 22.7 122.0 22.7 122.0 22.7 122.0
2007-08-18 00:00:00 23.4 121.2 23.7 120.7 23.5 121.1 23.6 121.1
2007-08-18 06:00:00 24.0 119.9 24.0 119.9 24.0 119.9 24.0 119.9
2007-08-18 12:00:00 24.4 119.4 24.4 119.5 24.3 119.5 24.3 119.6
2007-08-18 18:00:00 24.8 119.0 24.8 119.0 24.9 119.0 24.9 119.0
2007-08-19 00:00:00 25.2 118.6 25.2 118.5 25.2 118.5 25.3 118.5
2007-08-19 06:00:00 25.6 118.3 25.6 118.3 25.5 118.1 25.5 118.2
2007-08-19 12:00:00 26.0 118.0 26.1 118.0 26.3 117.4 26.1 117.9
2007-08-19 18:00:00 26.4 117.7 27.0 117.8 27.0 116.9 27.0 117.5
2007-08-20 00:00:00 27.0 117.0 27.1 116.5
2007-08-20 06:00:00 27.5 116.7 27.4 116.3
2007-08-20 12:00:00 27.8 116.0 27.6 115.9
2007-08-20 18:00:00 27.9 115.3 27.6 115.2
2007-08-21 00:00:00 27.9 115.0 27.6 114.8
2007-08-21 06:00:00 27.8 114.7 27.6 114.4
2007-08-21 12:00:00 27.8 114.5 27.6 114.0
2007-08-21 18:00:00 27.8 114.0 27.6 113.7
2007-08-22 00:00:00 27.7 113.7 27.6 113.3
2007-08-22 06:00:00 27.8 113.2 27.7 113.0
2007-08-22 12:00:00 28.0 112.6 27.8 112.6
2007-08-22 18:00:00 28.1 111.6 28.0 111.7
2007-08-23 00:00:00 28.3 110.1 27.8 110.7
jtwc_wp tokyo cma hko
2007-08-23 06:00:00 28.1 108.9 27.7 109.9
2007-08-23 12:00:00 27.6 107.7 27.1 108.8
2007-08-23 18:00:00 26.6 107.0 26.7 107.3
2007-08-24 00:00:00 25.8 106.5 25.9 106.5
2007-08-24 06:00:00 25.0 106.0 25.0 106.0

top of pageTrack Data:Intensity

jtwc_wp tokyo cma hko
Date Wind Pres Wind Pres Wind Pres Wind Pres
2007-08-11 00:00:00 15. 1010.
2007-08-11 06:00:00 15. 1010.
2007-08-11 12:00:00 20. 1007.
2007-08-11 18:00:00 20. 1004.
2007-08-12 00:00:00 25. 1004. 1006. 23. 1006.
2007-08-12 06:00:00 35. 996. 1004. 29. 1004. 25. 1004.
2007-08-12 12:00:00 45. 989. 1002. 29. 1002. 30. 1002.
2007-08-12 18:00:00 50. 985. 35. 998. 35. 998. 35. 998.
2007-08-13 00:00:00 50. 985. 40. 992. 39. 995. 40. 996.
2007-08-13 06:00:00 55. 982. 50. 985. 49. 990. 50. 990.
2007-08-13 12:00:00 60. 978. 55. 980. 54. 985. 50. 985.
2007-08-13 18:00:00 70. 970. 60. 975. 58. 980. 55. 980.
2007-08-14 00:00:00 80. 963. 70. 965. 68. 970. 65. 970.
2007-08-14 06:00:00 90. 956. 75. 955. 78. 965. 70. 965.
2007-08-14 12:00:00 100. 948. 80. 950. 78. 960. 75. 960.
2007-08-14 18:00:00 110. 941. 85. 945. 87. 950. 80. 955.
2007-08-15 00:00:00 130. 926. 95. 935. 97. 940. 90. 945.
2007-08-15 06:00:00 130. 926. 95. 930. 97. 940. 95. 940.
2007-08-15 12:00:00 135. 922. 100. 920. 107. 935. 95. 940.
2007-08-15 18:00:00 140. 918. 105. 915. 107. 935. 100. 930.
2007-08-16 00:00:00 140. 918. 110. 910. 117. 920. 105. 925.
2007-08-16 06:00:00 140. 918. 110. 910. 126. 910. 110. 920.
2007-08-16 12:00:00 140. 918. 110. 910. 126. 910. 110. 920.
2007-08-16 18:00:00 140. 918. 110. 910. 117. 915. 110. 920.
2007-08-17 00:00:00 135. 922. 100. 920. 117. 920. 105. 925.
jtwc_wp tokyo cma hko
2007-08-17 06:00:00 120. 933. 100. 920. 107. 935. 100. 930.
2007-08-17 12:00:00 115. 937. 95. 930. 107. 935. 95. 935.
2007-08-17 18:00:00 105. 944. 90. 940. 97. 940. 90. 945.
2007-08-18 00:00:00 100. 948. 65. 970. 87. 950. 80. 960.
2007-08-18 06:00:00 85. 959. 55. 980. 78. 960. 75. 965.
2007-08-18 12:00:00 75. 967. 55. 980. 68. 970. 65. 970.
2007-08-18 18:00:00 65. 974. 50. 985. 64. 975. 60. 975.
2007-08-19 00:00:00 55. 982. 45. 990. 45. 990. 45. 988.
2007-08-19 06:00:00 45. 989. 40. 992. 45. 990. 40. 992.
2007-08-19 12:00:00 35. 996. 996. 33. 995. 35. 996.
2007-08-19 18:00:00 30. 1000. 996. 29. 998. 30. 996.
2007-08-20 00:00:00 998. 23. 998.
2007-08-20 06:00:00 998. 23. 998.
2007-08-20 12:00:00 1000. 19. 998.
2007-08-20 18:00:00 1000. 19. 1000.
2007-08-21 00:00:00 1000. 19. 1000.
2007-08-21 06:00:00 1000. 19. 1000.
2007-08-21 12:00:00 1000. 19. 1000.
2007-08-21 18:00:00 1000. 19. 1000.
2007-08-22 00:00:00 1000. 19. 1000.
2007-08-22 06:00:00 1000. 19. 1000.
2007-08-22 12:00:00 1002. 19. 1002.
2007-08-22 18:00:00 1002. 19. 1002.
2007-08-23 00:00:00 1004. 19. 1004.
jtwc_wp tokyo cma hko
2007-08-23 06:00:00 1002. 19. 1004.
2007-08-23 12:00:00 1004. 19. 1004.
2007-08-23 18:00:00 1004. 19. 1004.
2007-08-24 00:00:00 1006. 19. 1006.
2007-08-24 06:00:00 1006. 19. 1006.

top of page Links to source data

Source Source file Format
jtwc_wp bwp092007.txt ATCF
tokyo bst_all.txt:Line=56551:SEPAT:708 JMA text table
cma CH2007BST.txt:Storm=9:Sepat CMA text table
hko tc-besttrack-data.txt:Line=32661:SEPAT HKO Text table